createdAt,value
2018-02-19T00:00:27.984Z,2.08
2018-02-19T00:02:56.321Z,2.05
2018-02-19T00:05:24.638Z,2.04
2018-02-19T00:07:52.965Z,1.98
2018-02-19T00:10:25.657Z,2.00
2018-02-19T00:12:53.957Z,1.88
2018-02-19T00:15:22.347Z,1.90
2018-02-19T00:17:51.058Z,1.80
2018-02-19T00:20:19.442Z,1.79
2018-02-19T00:22:48.941Z,1.77
2018-02-19T00:25:18.986Z,1.81
2018-02-19T00:27:48.285Z,1.74
2018-02-19T00:30:16.614Z,1.75
2018-02-19T00:32:45.110Z,1.68
2018-02-19T00:35:14.205Z,1.65
2018-02-19T00:37:46.725Z,1.68
2018-02-19T00:40:15.243Z,1.58
2018-02-19T00:42:43.586Z,1.52
2018-02-19T00:45:12.013Z,1.46
2018-02-19T00:47:40.548Z,1.44
2018-02-19T00:50:08.938Z,1.39
2018-02-19T00:52:37.534Z,1.36
2018-02-19T00:55:06.212Z,1.34
2018-02-19T00:57:34.540Z,1.33
2018-02-19T01:00:03.077Z,1.26
2018-02-19T01:02:31.569Z,1.27
2018-02-19T01:04:59.967Z,1.32
2018-02-19T01:07:28.411Z,1.32
2018-02-19T01:09:56.816Z,1.28
2018-02-19T01:12:25.162Z,1.22
2018-02-19T01:14:53.642Z,1.28
2018-02-19T01:17:22.025Z,1.19
2018-02-19T01:19:50.439Z,1.16
2018-02-19T01:22:18.823Z,1.11
2018-02-19T01:24:47.184Z,1.21
2018-02-19T01:27:15.566Z,1.15
2018-02-19T01:29:43.917Z,1.13
2018-02-19T01:32:12.240Z,1.10
2018-02-19T01:34:40.652Z,1.09
2018-02-19T01:37:09.008Z,1.11
2018-02-19T01:39:37.640Z,1.12
2018-02-19T01:42:06.017Z,1.16
2018-02-19T01:44:34.636Z,1.09
2018-02-19T01:47:02.989Z,1.08
2018-02-19T01:49:38.653Z,1.09
2018-02-19T01:52:13.516Z,1.09
2018-02-19T01:54:42.381Z,1.07
2018-02-19T01:57:10.949Z,1.09
2018-02-19T01:59:39.217Z,1.06
2018-02-19T02:02:07.529Z,1.07
2018-02-19T02:04:35.958Z,1.05
2018-02-19T02:07:04.302Z,1.12
2018-02-19T02:09:32.815Z,1.12
2018-02-19T02:12:01.210Z,1.08
2018-02-19T02:14:29.489Z,1.13
2018-02-19T02:16:57.834Z,1.06
2018-02-19T02:19:26.169Z,1.11
2018-02-19T02:21:54.550Z,1.12
2018-02-19T02:24:23.003Z,1.13
2018-02-19T02:26:51.349Z,1.13
2018-02-19T02:29:19.771Z,1.07
2018-02-19T02:31:48.243Z,1.07
2018-02-19T02:34:16.541Z,1.03
2018-02-19T02:36:44.877Z,1.03
2018-02-19T02:39:13.210Z,1.09
2018-02-19T02:41:41.583Z,1.04
2018-02-19T02:44:09.881Z,1.01
2018-02-19T02:46:40.144Z,0.97
2018-02-19T02:49:08.540Z,0.94
2018-02-19T02:51:36.916Z,1.01
2018-02-19T02:54:05.297Z,0.96
2018-02-19T02:56:33.655Z,0.96
2018-02-19T02:59:01.974Z,0.88
2018-02-19T03:01:30.304Z,0.91
2018-02-19T03:03:58.799Z,0.84
2018-02-19T03:06:27.109Z,0.89
2018-02-19T03:08:55.466Z,0.88
2018-02-19T03:11:23.833Z,0.82
2018-02-19T03:13:52.141Z,0.84
2018-02-19T03:16:20.829Z,0.78
2018-02-19T03:18:49.157Z,0.84
2018-02-19T03:21:17.482Z,0.76
2018-02-19T03:23:45.792Z,0.79
2018-02-19T03:26:14.109Z,0.74
2018-02-19T03:28:42.505Z,0.81
2018-02-19T03:31:10.939Z,0.74
2018-02-19T03:33:39.405Z,0.72
2018-02-19T03:36:07.705Z,0.73
2018-02-19T03:38:35.980Z,0.64
2018-02-19T03:41:04.360Z,0.61
2018-02-19T03:43:32.652Z,0.67
2018-02-19T03:46:01.020Z,0.59
2018-02-19T03:48:29.341Z,0.61
2018-02-19T03:50:57.645Z,0.62
2018-02-19T03:53:25.937Z,0.59
2018-02-19T03:55:54.266Z,0.50
2018-02-19T03:58:22.740Z,0.43
2018-02-19T04:00:51.093Z,0.50
2018-02-19T04:03:19.383Z,0.39
2018-02-19T04:05:47.690Z,0.39
2018-02-19T04:08:16.216Z,0.29
2018-02-19T04:10:44.542Z,0.38
2018-02-19T04:13:12.873Z,0.29
2018-02-19T04:15:41.382Z,0.34
2018-02-19T04:18:09.837Z,0.37
2018-02-19T04:20:38.336Z,0.35
2018-02-19T04:23:06.665Z,0.35
2018-02-19T04:25:34.991Z,0.25
2018-02-19T04:28:03.362Z,0.23
2018-02-19T04:30:31.741Z,0.28
2018-02-19T04:33:00.137Z,0.15
2018-02-19T04:35:28.457Z,0.15
2018-02-19T04:37:56.785Z,0.11
2018-02-19T04:40:25.154Z,0.16
2018-02-19T04:42:54.093Z,0.12
2018-02-19T04:45:22.441Z,0.05
2018-02-19T04:47:50.882Z,0.00
2018-02-19T04:50:19.200Z,0.00
2018-02-19T04:52:47.682Z,-0.03
2018-02-19T04:55:15.999Z,-0.07
2018-02-19T04:57:44.288Z,-0.04
2018-02-19T05:03:11.378Z,-0.07
2018-02-19T05:05:40.242Z,-0.08
2018-02-19T05:08:09.155Z,-0.05
2018-02-19T05:10:38.175Z,-0.04
2018-02-19T05:13:07.068Z,-0.10
2018-02-19T05:15:35.960Z,-0.05
2018-02-19T05:18:04.733Z,-0.07
2018-02-19T05:20:33.799Z,-0.08
2018-02-19T05:23:02.730Z,-0.11
2018-02-19T05:25:32.106Z,-0.09
2018-02-19T05:28:01.014Z,-0.13
2018-02-19T05:30:30.119Z,-0.12
2018-02-19T05:32:59.625Z,-0.08
2018-02-19T05:35:28.789Z,-0.09
2018-02-19T05:37:57.982Z,-0.11
2018-02-19T05:40:27.109Z,-0.11
2018-02-19T05:42:55.926Z,-0.15
2018-02-19T05:45:24.643Z,-0.10
2018-02-19T05:47:53.580Z,-0.14
2018-02-19T05:50:22.666Z,-0.13
2018-02-19T05:52:51.560Z,-0.06
2018-02-19T05:55:20.458Z,-0.08
2018-02-19T05:57:49.432Z,-0.16
2018-02-19T06:00:18.451Z,-0.12
2018-02-19T06:02:47.539Z,-0.12
2018-02-19T06:05:16.245Z,-0.15
2018-02-19T06:07:45.105Z,-0.19
2018-02-19T06:10:14.561Z,-0.16
2018-02-19T06:12:43.515Z,-0.19
2018-02-19T06:15:12.589Z,-0.24
2018-02-19T06:17:43.718Z,-0.18
2018-02-19T06:20:12.433Z,-0.25
2018-02-19T06:22:41.329Z,-0.17
2018-02-19T06:25:11.723Z,-0.21
2018-02-19T06:27:40.542Z,-0.15
2018-02-19T06:30:10.980Z,-0.25
2018-02-19T06:32:41.447Z,-0.18
2018-02-19T06:35:12.377Z,-0.20
2018-02-19T06:37:42.027Z,-0.15
2018-02-19T06:40:12.115Z,-0.17
2018-02-19T06:42:45.303Z,-0.18
2018-02-19T06:45:15.754Z,-0.20
2018-02-19T06:47:44.771Z,-0.10
2018-02-19T06:50:14.910Z,-0.12
2018-02-19T06:52:50.335Z,-0.15
2018-02-19T06:55:19.431Z,-0.09
2018-02-19T06:57:48.094Z,-0.13
2018-02-19T07:00:17.258Z,-0.05
2018-02-19T07:02:46.411Z,-0.05
2018-02-19T07:05:15.199Z,0.04
2018-02-19T07:07:43.931Z,-0.08
2018-02-19T07:10:12.762Z,-0.04
2018-02-19T07:12:41.868Z,-0.01
2018-02-19T07:15:17.910Z,0.05
2018-02-19T07:17:47.148Z,0.13
2018-02-19T07:20:16.363Z,0.16
2018-02-19T07:22:45.406Z,0.21
2018-02-19T07:25:14.502Z,0.23
2018-02-19T07:27:43.809Z,0.33
2018-02-19T07:30:12.498Z,0.33
2018-02-19T07:32:41.765Z,0.40
2018-02-19T07:35:10.895Z,0.38
2018-02-19T07:37:40.194Z,0.41
2018-02-19T07:40:09.266Z,0.52
2018-02-19T07:42:38.384Z,0.60
2018-02-19T07:45:07.671Z,0.69
2018-02-19T07:47:36.974Z,0.71
2018-02-19T07:50:06.093Z,0.72
2018-02-19T07:52:34.891Z,0.73
2018-02-19T07:55:03.674Z,0.88
2018-02-19T07:57:32.743Z,0.97
2018-02-19T08:00:01.642Z,1.09
2018-02-19T08:02:30.522Z,1.11
2018-02-19T08:04:59.822Z,1.18
2018-02-19T08:07:28.713Z,1.20
2018-02-19T08:09:57.679Z,1.18
2018-02-19T08:12:26.449Z,1.05
2018-02-19T08:14:56.059Z,1.05
2018-02-19T08:17:25.099Z,0.95
2018-02-19T08:19:53.979Z,1.11
2018-02-19T08:22:22.938Z,1.14
2018-02-19T08:24:52.175Z,1.33
2018-02-19T08:27:21.001Z,1.52
2018-02-19T08:29:49.954Z,1.47
2018-02-19T08:32:19.266Z,1.57
2018-02-19T08:34:48.428Z,1.62
2018-02-19T08:37:17.446Z,1.77
2018-02-19T08:39:46.159Z,1.66
2018-02-19T08:42:14.943Z,1.81
2018-02-19T08:44:43.706Z,1.73
2018-02-19T08:47:12.495Z,2.04
2018-02-19T08:49:41.148Z,2.27
2018-02-19T08:52:16.843Z,2.19
2018-02-19T08:54:45.823Z,2.44
2018-02-19T08:57:15.043Z,2.13
2018-02-19T08:59:43.822Z,2.26
2018-02-19T09:02:12.737Z,2.36
2018-02-19T09:04:42.166Z,2.49
2018-02-19T09:07:11.051Z,2.55
2018-02-19T09:09:46.893Z,2.45
2018-02-19T09:12:15.754Z,2.50
2018-02-19T09:14:44.814Z,2.73
2018-02-19T09:17:13.671Z,2.98
2018-02-19T09:19:42.681Z,2.80
2018-02-19T09:22:11.543Z,2.77
2018-02-19T09:24:40.513Z,2.93
2018-02-19T09:27:09.606Z,3.00
2018-02-19T09:29:38.685Z,3.02
2018-02-19T09:32:07.796Z,3.10
2018-02-19T09:34:36.874Z,3.27
2018-02-19T09:37:05.986Z,3.38
2018-02-19T09:39:34.870Z,3.36
2018-02-19T09:42:03.768Z,3.52
2018-02-19T09:44:33.241Z,3.49
2018-02-19T09:47:02.156Z,3.53
2018-02-19T09:49:31.041Z,3.52
2018-02-19T09:52:00.342Z,3.79
2018-02-19T09:54:31.083Z,3.39
2018-02-19T09:57:00.173Z,3.66
2018-02-19T09:59:29.075Z,3.81
2018-02-19T10:01:58.371Z,3.60
2018-02-19T10:04:27.015Z,3.72
2018-02-19T10:06:55.679Z,4.01
2018-02-19T10:09:24.815Z,3.56
2018-02-19T10:11:53.750Z,3.86
2018-02-19T10:14:22.825Z,3.98
2018-02-19T10:16:51.850Z,4.08
2018-02-19T10:19:21.391Z,4.31
2018-02-19T10:21:50.522Z,4.14
2018-02-19T10:24:20.473Z,3.91
2018-02-19T10:26:49.578Z,4.07
2018-02-19T10:29:18.621Z,4.16
2018-02-19T10:31:47.474Z,4.46
2018-02-19T10:34:16.502Z,4.21
2018-02-19T10:36:45.194Z,4.29
2018-02-19T10:39:14.494Z,4.25
2018-02-19T10:41:43.569Z,4.34
2018-02-19T10:44:12.685Z,4.32
2018-02-19T10:46:42.177Z,4.26
2018-02-19T10:49:11.077Z,4.37
2018-02-19T10:51:40.389Z,4.37
2018-02-19T10:54:09.671Z,4.33
2018-02-19T10:56:38.510Z,5.13
2018-02-19T10:59:07.873Z,5.23
2018-02-19T11:01:36.895Z,5.90
2018-02-19T11:04:06.056Z,6.33
2018-02-19T11:06:34.811Z,5.79
2018-02-19T11:09:03.941Z,5.80
2018-02-19T11:11:32.722Z,6.16
2018-02-19T11:14:01.611Z,6.48
2018-02-19T11:16:30.489Z,6.86
2018-02-19T11:18:59.478Z,6.75
2018-02-19T11:21:28.559Z,6.66
2018-02-19T11:23:57.389Z,6.54
2018-02-19T11:26:26.306Z,6.88
2018-02-19T11:28:55.119Z,7.70
2018-02-19T11:31:24.470Z,7.70
2018-02-19T11:33:53.152Z,7.57
2018-02-19T11:36:22.237Z,7.39
2018-02-19T11:38:55.446Z,6.88
2018-02-19T11:41:20.271Z,6.35
2018-02-19T11:43:49.027Z,6.59
2018-02-19T11:46:17.802Z,6.76
2018-02-19T11:48:46.600Z,6.79
2018-02-19T11:51:15.626Z,6.87
2018-02-19T11:53:44.473Z,6.34
2018-02-19T11:56:13.581Z,6.26
2018-02-19T11:58:42.368Z,6.57
2018-02-19T12:01:11.147Z,6.90
2018-02-19T12:03:40.406Z,6.69
2018-02-19T12:06:09.548Z,6.67
2018-02-19T12:08:38.630Z,7.31
2018-02-19T12:11:07.526Z,7.61
2018-02-19T12:13:36.423Z,7.10
2018-02-19T12:16:05.313Z,7.02
2018-02-19T12:18:34.351Z,7.36
2018-02-19T12:21:03.928Z,7.50
2018-02-19T12:23:38.442Z,6.73
2018-02-19T12:26:08.208Z,6.18
2018-02-19T12:28:37.800Z,7.31
2018-02-19T12:31:07.181Z,7.82
2018-02-19T12:33:36.254Z,7.68
2018-02-19T12:36:05.920Z,7.80
2018-02-19T12:38:34.856Z,8.01
2018-02-19T12:41:03.580Z,7.94
2018-02-19T12:43:32.610Z,7.24
2018-02-19T12:46:01.842Z,6.85
2018-02-19T12:48:30.785Z,6.68
2018-02-19T12:50:59.718Z,7.17
2018-02-19T12:53:28.603Z,7.39
2018-02-19T12:55:57.498Z,8.19
2018-02-19T12:58:26.479Z,8.29
2018-02-19T13:00:55.405Z,7.56
2018-02-19T13:03:24.054Z,7.48
2018-02-19T13:05:53.118Z,7.76
2018-02-19T13:08:22.232Z,7.77
2018-02-19T13:10:51.342Z,8.33
2018-02-19T13:13:20.438Z,7.47
2018-02-19T13:15:49.381Z,7.25
2018-02-19T13:18:18.296Z,7.80
2018-02-19T13:20:47.731Z,7.33
2018-02-19T13:23:16.870Z,6.98
2018-02-19T13:25:45.925Z,7.52
2018-02-19T13:28:15.017Z,8.05
2018-02-19T13:30:43.810Z,7.86
2018-02-19T13:33:12.783Z,7.13
2018-02-19T13:35:41.682Z,7.43
2018-02-19T13:38:11.187Z,7.25
2018-02-19T13:40:40.127Z,7.41
2018-02-19T13:43:08.823Z,8.45
2018-02-19T13:45:37.835Z,8.30
2018-02-19T13:48:06.627Z,8.88
2018-02-19T13:50:36.066Z,8.60
2018-02-19T13:53:05.357Z,8.17
2018-02-19T13:55:34.362Z,8.50
2018-02-19T13:58:03.241Z,8.86
2018-02-19T14:00:31.996Z,9.33
2018-02-19T14:03:00.799Z,9.00
2018-02-19T14:05:29.914Z,9.07
2018-02-19T14:07:59.104Z,8.40
2018-02-19T14:10:28.094Z,7.46
2018-02-19T14:12:56.982Z,7.44
2018-02-19T14:15:26.398Z,7.26
2018-02-19T14:17:55.284Z,7.01
2018-02-19T14:20:24.165Z,7.06
2018-02-19T14:22:54.915Z,6.67
2018-02-19T14:25:28.039Z,6.65
2018-02-19T14:27:57.610Z,6.45
2018-02-19T14:30:30.498Z,6.63
2018-02-19T14:32:59.893Z,6.52
2018-02-19T14:35:28.571Z,6.24
2018-02-19T14:37:57.399Z,6.28
2018-02-19T14:40:26.350Z,6.06
2018-02-19T14:42:55.286Z,6.43
2018-02-19T14:45:24.588Z,6.09
2018-02-19T14:47:53.647Z,6.24
2018-02-19T14:50:22.449Z,6.10
2018-02-19T14:52:51.623Z,6.10
2018-02-19T14:55:20.499Z,5.93
2018-02-19T14:57:49.620Z,6.16
2018-02-19T15:00:18.738Z,6.17
2018-02-19T15:02:47.396Z,5.93
2018-02-19T15:05:16.279Z,5.90
2018-02-19T15:07:45.352Z,5.84
2018-02-19T15:10:14.316Z,5.69
2018-02-19T15:12:43.300Z,5.67
2018-02-19T15:15:12.323Z,5.61
2018-02-19T15:17:41.354Z,5.69
2018-02-19T15:20:16.955Z,5.46
2018-02-19T15:22:46.305Z,5.37
2018-02-19T15:25:14.967Z,5.32
2018-02-19T15:27:44.278Z,5.33
2018-02-19T15:30:13.545Z,5.32
2018-02-19T15:32:42.470Z,5.22
2018-02-19T15:35:11.989Z,5.20
2018-02-19T15:37:40.871Z,5.18
2018-02-19T15:40:09.764Z,5.16
2018-02-19T15:42:38.866Z,5.15
2018-02-19T15:45:07.761Z,5.08
2018-02-19T15:47:36.876Z,5.04
2018-02-19T15:50:05.739Z,5.04
2018-02-19T15:52:34.790Z,5.02
2018-02-19T15:55:03.702Z,4.95
2018-02-19T15:57:36.270Z,4.80
2018-02-19T16:00:05.392Z,4.81
2018-02-19T16:02:34.287Z,4.75
2018-02-19T16:05:03.166Z,4.73
2018-02-19T16:07:32.394Z,4.71
2018-02-19T16:10:01.167Z,4.58
2018-02-19T16:12:30.362Z,4.47
2018-02-19T16:14:59.162Z,4.43
2018-02-19T16:17:28.056Z,4.25
2018-02-19T16:19:57.042Z,4.26
2018-02-19T16:22:26.113Z,4.08
2018-02-19T16:24:55.226Z,3.95
2018-02-19T16:27:24.112Z,4.09
2018-02-19T16:29:52.942Z,4.00
2018-02-19T16:32:22.099Z,4.00
2018-02-19T16:34:50.989Z,4.09
2018-02-19T16:37:20.085Z,4.04
2018-02-19T16:39:48.971Z,3.96
2018-02-19T16:42:17.871Z,3.97
2018-02-19T16:44:47.339Z,4.02
2018-02-19T16:47:17.066Z,3.94
2018-02-19T16:49:45.976Z,3.72
2018-02-19T16:52:15.434Z,3.54
2018-02-19T16:54:44.800Z,3.60
2018-02-19T16:57:14.078Z,3.56
2018-02-19T16:59:42.901Z,3.56
2018-02-19T17:02:11.651Z,3.69
2018-02-19T17:04:40.751Z,3.58
2018-02-19T17:07:10.243Z,3.66
2018-02-19T17:09:39.369Z,3.62
2018-02-19T17:12:08.527Z,3.71
2018-02-19T17:14:37.654Z,3.79
2018-02-19T17:17:06.431Z,3.77
2018-02-19T17:19:35.801Z,3.63
2018-02-19T17:22:05.221Z,3.58
2018-02-19T17:24:35.432Z,3.60
2018-02-19T17:27:04.299Z,3.53
2018-02-19T17:29:33.384Z,3.50
2018-02-19T17:32:02.138Z,3.57
2018-02-19T17:34:31.143Z,3.54
2018-02-19T17:36:59.999Z,3.61
2018-02-19T17:39:29.109Z,3.37
2018-02-19T17:41:59.020Z,3.37
2018-02-19T17:44:27.877Z,3.57
2018-02-19T17:46:57.276Z,3.60
2018-02-19T17:49:26.509Z,3.42
2018-02-19T17:52:00.621Z,3.63
2018-02-19T17:54:31.703Z,3.40
2018-02-19T17:57:01.482Z,3.41
2018-02-19T17:59:30.710Z,3.51
2018-02-19T18:01:59.719Z,3.59
2018-02-19T18:04:28.858Z,3.61
2018-02-19T18:06:57.956Z,3.62
2018-02-19T18:09:27.775Z,3.51
2018-02-19T18:11:56.823Z,3.45
2018-02-19T18:14:25.671Z,3.30
2018-02-19T18:16:54.566Z,3.37
2018-02-19T18:19:23.432Z,3.26
2018-02-19T18:21:52.606Z,3.19
2018-02-19T18:24:21.634Z,3.12
2018-02-19T18:26:50.954Z,3.02
2018-02-19T18:29:20.218Z,3.01
2018-02-19T18:31:49.699Z,2.95
2018-02-19T18:34:18.599Z,2.83
2018-02-19T18:36:47.663Z,2.85
2018-02-19T18:39:16.498Z,2.81
2018-02-19T18:41:45.730Z,2.87
2018-02-19T18:44:16.847Z,2.89
2018-02-19T18:46:45.839Z,2.69
2018-02-19T18:49:14.830Z,2.82
2018-02-19T18:51:43.927Z,2.90
2018-02-19T18:54:13.018Z,2.88
2018-02-19T18:56:42.116Z,2.78
2018-02-19T18:59:14.211Z,2.75
2018-02-19T19:01:43.119Z,2.70
2018-02-19T19:04:12.790Z,2.75
2018-02-19T19:06:43.440Z,2.73
2018-02-19T19:09:23.289Z,2.65
2018-02-19T19:11:52.561Z,2.48
2018-02-19T19:14:21.686Z,2.29
2018-02-19T19:16:51.194Z,2.29
2018-02-19T19:19:21.304Z,2.23
2018-02-19T19:21:50.436Z,2.24
2018-02-19T19:24:19.666Z,2.32
2018-02-19T19:26:49.129Z,2.20
2018-02-19T19:29:18.483Z,2.16
2018-02-19T19:31:47.709Z,2.05
2018-02-19T19:34:16.882Z,2.10
2018-02-19T19:36:46.039Z,2.04
2018-02-19T19:39:15.058Z,2.00
2018-02-19T19:41:44.001Z,2.09
2018-02-19T19:44:13.863Z,2.02
2018-02-19T19:46:43.367Z,2.07
2018-02-19T19:49:12.677Z,2.04
2018-02-19T19:51:41.972Z,1.85
2018-02-19T19:54:11.012Z,1.97
2018-02-19T19:56:39.954Z,1.95
2018-02-19T19:59:08.717Z,1.96
2018-02-19T20:01:37.479Z,2.12
2018-02-19T20:04:06.598Z,2.10
2018-02-19T20:06:35.314Z,1.87
2018-02-19T20:09:04.216Z,1.98
2018-02-19T20:11:33.368Z,1.86
2018-02-19T20:14:02.359Z,1.87
2018-02-19T20:16:31.762Z,1.72
2018-02-19T20:19:02.284Z,1.73
2018-02-19T20:21:34.811Z,1.78
2018-02-19T20:24:04.007Z,1.70
2018-02-19T20:26:33.037Z,1.72
2018-02-19T20:29:02.177Z,1.67
2018-02-19T20:31:32.006Z,1.73
2018-02-19T20:34:00.884Z,1.79
2018-02-19T20:36:29.828Z,1.76
2018-02-19T20:38:58.678Z,1.61
2018-02-19T20:41:27.466Z,1.63
2018-02-19T20:43:56.349Z,1.96
2018-02-19T20:46:25.663Z,2.00
2018-02-19T20:48:54.747Z,1.94
2018-02-19T20:51:23.819Z,1.91
2018-02-19T20:53:57.273Z,1.86
2018-02-19T20:56:31.512Z,1.72
2018-02-19T20:59:00.763Z,1.74
2018-02-19T21:01:29.985Z,1.71
2018-02-19T21:03:59.604Z,1.83
2018-02-19T21:06:28.678Z,1.88
2018-02-19T21:08:57.959Z,1.80
2018-02-19T21:11:27.101Z,1.83
2018-02-19T21:13:56.359Z,1.63
2018-02-19T21:16:26.124Z,1.86
2018-02-19T21:18:56.223Z,2.07
2018-02-19T21:21:26.102Z,2.03
2018-02-19T21:23:55.174Z,2.03
2018-02-19T21:26:24.279Z,1.99
2018-02-19T21:28:54.002Z,1.77
2018-02-19T21:31:23.070Z,1.99
2018-02-19T21:33:51.975Z,1.95
2018-02-19T21:36:21.007Z,1.89
2018-02-19T21:38:52.929Z,1.95
2018-02-19T21:41:22.210Z,2.05
2018-02-19T21:43:51.243Z,1.88
2018-02-19T21:46:20.310Z,1.90
2018-02-19T21:48:49.702Z,1.77
2018-02-19T21:51:18.765Z,1.90
2018-02-19T21:53:47.708Z,1.74
2018-02-19T21:56:16.798Z,1.69
2018-02-19T21:58:45.692Z,1.64
2018-02-19T22:01:14.852Z,1.73
2018-02-19T22:03:43.904Z,1.63
2018-02-19T22:06:12.833Z,1.60
2018-02-19T22:08:41.667Z,1.64
2018-02-19T22:11:10.482Z,1.54
2018-02-19T22:13:39.519Z,1.56
2018-02-19T22:16:08.335Z,1.48
2018-02-19T22:18:37.230Z,1.49
2018-02-19T22:21:07.758Z,1.42
2018-02-19T22:23:36.854Z,1.40
2018-02-19T22:26:05.954Z,1.42
2018-02-19T22:28:35.172Z,1.37
2018-02-19T22:31:03.857Z,1.38
2018-02-19T22:33:32.691Z,1.28
2018-02-19T22:36:01.517Z,1.31
2018-02-19T22:38:30.397Z,1.20
2018-02-19T22:40:59.679Z,1.10
2018-02-19T22:43:28.515Z,1.30
2018-02-19T22:45:57.510Z,1.07
2018-02-19T22:48:26.688Z,1.15
2018-02-19T22:50:55.410Z,1.01
2018-02-19T22:53:24.558Z,0.85
2018-02-19T22:55:53.290Z,0.93
2018-02-19T22:58:22.049Z,0.85
2018-02-19T23:00:51.100Z,0.98
2018-02-19T23:03:20.151Z,1.02
2018-02-19T23:05:49.208Z,1.06
2018-02-19T23:08:18.321Z,0.93
2018-02-19T23:10:47.208Z,0.88
2018-02-19T23:13:16.229Z,0.88
2018-02-19T23:15:45.197Z,0.75
2018-02-19T23:18:13.962Z,0.79
2018-02-19T23:20:43.025Z,0.79
2018-02-19T23:23:12.143Z,0.84
2018-02-19T23:25:41.564Z,0.58
2018-02-19T23:28:10.846Z,0.72
2018-02-19T23:30:39.978Z,0.70
2018-02-19T23:33:09.486Z,0.73
2018-02-19T23:35:38.699Z,0.62
2018-02-19T23:38:07.664Z,0.46
2018-02-19T23:40:36.951Z,0.61
2018-02-19T23:43:06.067Z,0.51
2018-02-19T23:45:35.074Z,0.55
2018-02-19T23:48:07.969Z,0.59
2018-02-19T23:50:37.041Z,0.51
2018-02-19T23:53:06.648Z,0.49
2018-02-19T23:55:35.835Z,0.45
2018-02-19T23:58:06.092Z,0.45
